sensor_id;sensor_type;location;lat;lon;timestamp;P1;durP1;ratioP1;P2;durP2;ratioP2
26269;SDS011;15937;50.612;6.656;2023-11-19T00:03:06;1.58;;;0.98;;
26269;SDS011;15937;50.612;6.656;2023-11-19T00:07:08;1.67;;;1.57;;
26269;SDS011;15937;50.612;6.656;2023-11-19T00:11:11;1.75;;;0.98;;
26269;SDS011;15937;50.612;6.656;2023-11-19T00:15:17;5.00;;;0.93;;
26269;SDS011;15937;50.612;6.656;2023-11-19T00:19:20;0.80;;;0.80;;
26269;SDS011;15937;50.612;6.656;2023-11-19T00:23:22;1.20;;;0.88;;
26269;SDS011;15937;50.612;6.656;2023-11-19T00:27:24;1.15;;;0.77;;
26269;SDS011;15937;50.612;6.656;2023-11-19T00:31:27;1.55;;;0.65;;
26269;SDS011;15937;50.612;6.656;2023-11-19T00:35:29;0.63;;;0.60;;
26269;SDS011;15937;50.612;6.656;2023-11-19T00:39:33;0.82;;;0.40;;
26269;SDS011;15937;50.612;6.656;2023-11-19T00:43:34;0.60;;;0.60;;
26269;SDS011;15937;50.612;6.656;2023-11-19T00:47:37;2.20;;;0.73;;
26269;SDS011;15937;50.612;6.656;2023-11-19T00:51:39;2.33;;;0.90;;
26269;SDS011;15937;50.612;6.656;2023-11-19T00:55:41;0.80;;;0.80;;
26269;SDS011;15937;50.612;6.656;2023-11-19T00:59:45;1.70;;;1.10;;
26269;SDS011;15937;50.612;6.656;2023-11-19T01:07:51;1.20;;;0.80;;
26269;SDS011;15937;50.612;6.656;2023-11-19T01:11:56;4.45;;;1.55;;
26269;SDS011;15937;50.612;6.656;2023-11-19T01:15:58;2.20;;;1.17;;
26269;SDS011;15937;50.612;6.656;2023-11-19T01:20:00;4.47;;;1.47;;
26269;SDS011;15937;50.612;6.656;2023-11-19T01:24:02;2.13;;;1.10;;
26269;SDS011;15937;50.612;6.656;2023-11-19T01:28:07;8.27;;;1.70;;
26269;SDS011;15937;50.612;6.656;2023-11-19T01:32:09;2.70;;;1.10;;
26269;SDS011;15937;50.612;6.656;2023-11-19T01:36:13;1.00;;;0.90;;
26269;SDS011;15937;50.612;6.656;2023-11-19T01:40:19;1.70;;;0.90;;
26269;SDS011;15937;50.612;6.656;2023-11-19T01:44:22;6.07;;;0.70;;
26269;SDS011;15937;50.612;6.656;2023-11-19T01:48:24;0.50;;;0.50;;
26269;SDS011;15937;50.612;6.656;2023-11-19T01:52:26;1.17;;;0.60;;
26269;SDS011;15937;50.612;6.656;2023-11-19T01:56:29;1.75;;;0.50;;
26269;SDS011;15937;50.612;6.656;2023-11-19T02:00:31;0.50;;;0.50;;
26269;SDS011;15937;50.612;6.656;2023-11-19T02:04:34;1.33;;;0.70;;
26269;SDS011;15937;50.612;6.656;2023-11-19T02:08:36;4.63;;;1.20;;
26269;SDS011;15937;50.612;6.656;2023-11-19T02:12:40;7.43;;;0.95;;
26269;SDS011;15937;50.612;6.656;2023-11-19T02:16:46;5.45;;;1.15;;
26269;SDS011;15937;50.612;6.656;2023-11-19T02:20:51;8.85;;;1.45;;
26269;SDS011;15937;50.612;6.656;2023-11-19T02:24:58;9.35;;;1.42;;
26269;SDS011;15937;50.612;6.656;2023-11-19T02:29:02;10.93;;;2.35;;
26269;SDS011;15937;50.612;6.656;2023-11-19T02:33:08;5.35;;;1.30;;
26269;SDS011;15937;50.612;6.656;2023-11-19T02:37:10;6.18;;;1.88;;
26269;SDS011;15937;50.612;6.656;2023-11-19T02:41:13;2.58;;;1.50;;
26269;SDS011;15937;50.612;6.656;2023-11-19T02:45:15;6.15;;;1.27;;
26269;SDS011;15937;50.612;6.656;2023-11-19T02:49:18;13.57;;;1.88;;
26269;SDS011;15937;50.612;6.656;2023-11-19T02:53:20;10.87;;;1.43;;
26269;SDS011;15937;50.612;6.656;2023-11-19T02:57:23;7.50;;;1.40;;
26269;SDS011;15937;50.612;6.656;2023-11-19T03:05:32;7.85;;;1.75;;
26269;SDS011;15937;50.612;6.656;2023-11-19T03:09:34;10.33;;;1.50;;
26269;SDS011;15937;50.612;6.656;2023-11-19T03:13:36;9.60;;;1.63;;
26269;SDS011;15937;50.612;6.656;2023-11-19T03:17:38;9.57;;;2.22;;
26269;SDS011;15937;50.612;6.656;2023-11-19T03:21:41;6.63;;;1.48;;
26269;SDS011;15937;50.612;6.656;2023-11-19T03:25:43;13.68;;;2.25;;
26269;SDS011;15937;50.612;6.656;2023-11-19T03:29:45;14.07;;;1.60;;
26269;SDS011;15937;50.612;6.656;2023-11-19T03:33:47;12.00;;;1.40;;
26269;SDS011;15937;50.612;6.656;2023-11-19T03:37:49;6.45;;;1.98;;
26269;SDS011;15937;50.612;6.656;2023-11-19T03:45:54;10.13;;;2.45;;
26269;SDS011;15937;50.612;6.656;2023-11-19T03:49:56;15.55;;;1.55;;
26269;SDS011;15937;50.612;6.656;2023-11-19T03:53:58;13.13;;;1.88;;
26269;SDS011;15937;50.612;6.656;2023-11-19T03:58:04;7.95;;;1.70;;
26269;SDS011;15937;50.612;6.656;2023-11-19T04:02:06;14.90;;;2.10;;
26269;SDS011;15937;50.612;6.656;2023-11-19T04:06:08;11.23;;;1.87;;
26269;SDS011;15937;50.612;6.656;2023-11-19T04:10:10;5.13;;;1.25;;
26269;SDS011;15937;50.612;6.656;2023-11-19T04:14:13;6.13;;;1.35;;
26269;SDS011;15937;50.612;6.656;2023-11-19T04:18:16;9.40;;;1.80;;
26269;SDS011;15937;50.612;6.656;2023-11-19T04:22:18;11.63;;;1.98;;
26269;SDS011;15937;50.612;6.656;2023-11-19T04:26:20;9.97;;;1.73;;
26269;SDS011;15937;50.612;6.656;2023-11-19T04:30:22;7.72;;;2.00;;
26269;SDS011;15937;50.612;6.656;2023-11-19T04:34:24;19.08;;;2.08;;
26269;SDS011;15937;50.612;6.656;2023-11-19T04:38:27;11.25;;;3.08;;
26269;SDS011;15937;50.612;6.656;2023-11-19T04:42:29;9.23;;;2.00;;
26269;SDS011;15937;50.612;6.656;2023-11-19T04:46:31;11.37;;;2.00;;
26269;SDS011;15937;50.612;6.656;2023-11-19T04:50:33;11.60;;;1.75;;
26269;SDS011;15937;50.612;6.656;2023-11-19T04:54:35;10.70;;;2.67;;
26269;SDS011;15937;50.612;6.656;2023-11-19T04:58:47;14.93;;;1.90;;
26269;SDS011;15937;50.612;6.656;2023-11-19T05:02:50;11.27;;;2.03;;
26269;SDS011;15937;50.612;6.656;2023-11-19T05:06:51;11.70;;;2.58;;
26269;SDS011;15937;50.612;6.656;2023-11-19T05:10:54;13.63;;;2.05;;
26269;SDS011;15937;50.612;6.656;2023-11-19T05:14:56;10.90;;;2.22;;
26269;SDS011;15937;50.612;6.656;2023-11-19T05:18:58;14.32;;;2.08;;
26269;SDS011;15937;50.612;6.656;2023-11-19T05:23:00;16.97;;;3.20;;
26269;SDS011;15937;50.612;6.656;2023-11-19T05:27:02;20.35;;;2.53;;
26269;SDS011;15937;50.612;6.656;2023-11-19T05:31:05;12.52;;;2.40;;
26269;SDS011;15937;50.612;6.656;2023-11-19T05:35:07;19.35;;;3.38;;
26269;SDS011;15937;50.612;6.656;2023-11-19T05:39:10;15.38;;;2.42;;
26269;SDS011;15937;50.612;6.656;2023-11-19T05:43:13;10.48;;;2.40;;
26269;SDS011;15937;50.612;6.656;2023-11-19T05:47:16;12.05;;;2.95;;
26269;SDS011;15937;50.612;6.656;2023-11-19T05:51:18;20.48;;;2.67;;
26269;SDS011;15937;50.612;6.656;2023-11-19T05:55:20;21.57;;;3.53;;
26269;SDS011;15937;50.612;6.656;2023-11-19T05:59:22;16.13;;;2.13;;
26269;SDS011;15937;50.612;6.656;2023-11-19T06:03:26;14.20;;;2.58;;
26269;SDS011;15937;50.612;6.656;2023-11-19T06:07:28;16.65;;;2.42;;
26269;SDS011;15937;50.612;6.656;2023-11-19T06:11:30;11.35;;;2.05;;
26269;SDS011;15937;50.612;6.656;2023-11-19T06:15:32;13.82;;;2.55;;
26269;SDS011;15937;50.612;6.656;2023-11-19T06:19:35;19.55;;;2.78;;
26269;SDS011;15937;50.612;6.656;2023-11-19T06:23:37;15.70;;;4.03;;
26269;SDS011;15937;50.612;6.656;2023-11-19T06:27:39;21.88;;;2.28;;
26269;SDS011;15937;50.612;6.656;2023-11-19T06:31:43;21.88;;;3.40;;
26269;SDS011;15937;50.612;6.656;2023-11-19T06:35:44;24.20;;;2.60;;
26269;SDS011;15937;50.612;6.656;2023-11-19T06:39:47;19.75;;;2.75;;
26269;SDS011;15937;50.612;6.656;2023-11-19T06:43:48;21.77;;;3.03;;
26269;SDS011;15937;50.612;6.656;2023-11-19T06:47:50;17.80;;;2.67;;
26269;SDS011;15937;50.612;6.656;2023-11-19T06:51:52;19.98;;;2.83;;
26269;SDS011;15937;50.612;6.656;2023-11-19T06:55:55;16.97;;;2.40;;
26269;SDS011;15937;50.612;6.656;2023-11-19T06:59:58;21.85;;;4.40;;
26269;SDS011;15937;50.612;6.656;2023-11-19T07:04:00;23.45;;;3.00;;
26269;SDS011;15937;50.612;6.656;2023-11-19T07:08:09;36.83;;;4.05;;
26269;SDS011;15937;50.612;6.656;2023-11-19T07:12:11;22.83;;;3.53;;
26269;SDS011;15937;50.612;6.656;2023-11-19T07:16:14;27.90;;;3.28;;
26269;SDS011;15937;50.612;6.656;2023-11-19T07:20:16;18.47;;;3.07;;
26269;SDS011;15937;50.612;6.656;2023-11-19T07:24:18;28.25;;;3.75;;
26269;SDS011;15937;50.612;6.656;2023-11-19T07:28:20;14.40;;;2.73;;
26269;SDS011;15937;50.612;6.656;2023-11-19T07:32:22;9.13;;;2.08;;
26269;SDS011;15937;50.612;6.656;2023-11-19T07:36:24;25.80;;;3.00;;
26269;SDS011;15937;50.612;6.656;2023-11-19T07:40:26;15.25;;;3.10;;
26269;SDS011;15937;50.612;6.656;2023-11-19T07:44:28;24.08;;;3.22;;
26269;SDS011;15937;50.612;6.656;2023-11-19T07:48:31;29.00;;;3.83;;
26269;SDS011;15937;50.612;6.656;2023-11-19T07:52:33;30.42;;;4.95;;
26269;SDS011;15937;50.612;6.656;2023-11-19T07:56:35;21.98;;;3.45;;
26269;SDS011;15937;50.612;6.656;2023-11-19T08:00:37;22.23;;;3.67;;
26269;SDS011;15937;50.612;6.656;2023-11-19T08:04:41;26.73;;;3.63;;
26269;SDS011;15937;50.612;6.656;2023-11-19T08:08:47;29.70;;;3.88;;
26269;SDS011;15937;50.612;6.656;2023-11-19T08:12:49;21.80;;;3.87;;
26269;SDS011;15937;50.612;6.656;2023-11-19T08:16:51;25.35;;;4.65;;
26269;SDS011;15937;50.612;6.656;2023-11-19T08:20:54;23.10;;;4.35;;
26269;SDS011;15937;50.612;6.656;2023-11-19T08:28:59;25.75;;;4.25;;
26269;SDS011;15937;50.612;6.656;2023-11-19T08:33:01;37.92;;;3.90;;
26269;SDS011;15937;50.612;6.656;2023-11-19T08:37:07;29.83;;;4.75;;
26269;SDS011;15937;50.612;6.656;2023-11-19T08:41:09;28.38;;;4.22;;
26269;SDS011;15937;50.612;6.656;2023-11-19T08:45:11;45.95;;;4.80;;
26269;SDS011;15937;50.612;6.656;2023-11-19T08:49:13;28.63;;;3.72;;
26269;SDS011;15937;50.612;6.656;2023-11-19T08:53:15;35.75;;;4.78;;
26269;SDS011;15937;50.612;6.656;2023-11-19T08:57:18;32.53;;;4.88;;
26269;SDS011;15937;50.612;6.656;2023-11-19T09:01:30;23.13;;;3.58;;
26269;SDS011;15937;50.612;6.656;2023-11-19T09:05:34;25.67;;;3.53;;
26269;SDS011;15937;50.612;6.656;2023-11-19T09:09:36;17.63;;;5.35;;
26269;SDS011;15937;50.612;6.656;2023-11-19T09:13:38;31.15;;;3.40;;
26269;SDS011;15937;50.612;6.656;2023-11-19T09:17:40;26.27;;;3.83;;
26269;SDS011;15937;50.612;6.656;2023-11-19T09:21:47;28.77;;;4.93;;
26269;SDS011;15937;50.612;6.656;2023-11-19T09:25:50;23.67;;;3.70;;
26269;SDS011;15937;50.612;6.656;2023-11-19T09:29:53;23.42;;;3.33;;
26269;SDS011;15937;50.612;6.656;2023-11-19T09:33:58;23.33;;;4.13;;
26269;SDS011;15937;50.612;6.656;2023-11-19T09:38:01;26.33;;;4.17;;
26269;SDS011;15937;50.612;6.656;2023-11-19T09:42:05;31.92;;;3.63;;
26269;SDS011;15937;50.612;6.656;2023-11-19T09:46:12;39.57;;;5.13;;
26269;SDS011;15937;50.612;6.656;2023-11-19T09:50:17;23.35;;;4.90;;
26269;SDS011;15937;50.612;6.656;2023-11-19T09:54:21;21.13;;;5.32;;
26269;SDS011;15937;50.612;6.656;2023-11-19T09:58:23;31.03;;;4.13;;
26269;SDS011;15937;50.612;6.656;2023-11-19T10:02:25;34.47;;;3.37;;
26269;SDS011;15937;50.612;6.656;2023-11-19T10:06:31;26.83;;;4.50;;
26269;SDS011;15937;50.612;6.656;2023-11-19T10:10:33;24.13;;;3.78;;
26269;SDS011;15937;50.612;6.656;2023-11-19T10:14:36;30.17;;;3.75;;
26269;SDS011;15937;50.612;6.656;2023-11-19T10:18:47;21.67;;;4.20;;
26269;SDS011;15937;50.612;6.656;2023-11-19T10:22:54;28.92;;;4.30;;
26269;SDS011;15937;50.612;6.656;2023-11-19T10:26:57;21.98;;;3.53;;
26269;SDS011;15937;50.612;6.656;2023-11-19T10:30:59;30.88;;;3.33;;
26269;SDS011;15937;50.612;6.656;2023-11-19T10:35:04;30.48;;;4.13;;
26269;SDS011;15937;50.612;6.656;2023-11-19T10:39:08;15.25;;;2.50;;
26269;SDS011;15937;50.612;6.656;2023-11-19T10:43:10;26.45;;;3.92;;
26269;SDS011;15937;50.612;6.656;2023-11-19T10:47:13;23.95;;;2.60;;
26269;SDS011;15937;50.612;6.656;2023-11-19T10:51:19;24.52;;;3.38;;
26269;SDS011;15937;50.612;6.656;2023-11-19T10:55:29;19.77;;;3.45;;
26269;SDS011;15937;50.612;6.656;2023-11-19T10:59:32;20.75;;;3.38;;
26269;SDS011;15937;50.612;6.656;2023-11-19T11:03:35;24.30;;;3.05;;
26269;SDS011;15937;50.612;6.656;2023-11-19T11:07:41;23.10;;;3.35;;
26269;SDS011;15937;50.612;6.656;2023-11-19T11:11:46;27.83;;;3.60;;
26269;SDS011;15937;50.612;6.656;2023-11-19T11:15:50;25.05;;;3.90;;
26269;SDS011;15937;50.612;6.656;2023-11-19T11:19:52;27.10;;;3.85;;
26269;SDS011;15937;50.612;6.656;2023-11-19T11:41:21;19.38;;;3.38;;
26269;SDS011;15937;50.612;6.656;2023-11-19T11:45:36;18.98;;;3.30;;
26269;SDS011;15937;50.612;6.656;2023-11-19T11:49:45;18.77;;;3.17;;
26269;SDS011;15937;50.612;6.656;2023-11-19T11:53:48;22.45;;;3.17;;
26269;SDS011;15937;50.612;6.656;2023-11-19T11:57:49;21.80;;;2.85;;
26269;SDS011;15937;50.612;6.656;2023-11-19T12:01:58;16.40;;;3.05;;
26269;SDS011;15937;50.612;6.656;2023-11-19T12:06:00;15.23;;;3.03;;
26269;SDS011;15937;50.612;6.656;2023-11-19T12:10:06;17.55;;;3.38;;
26269;SDS011;15937;50.612;6.656;2023-11-19T12:14:13;15.77;;;3.38;;
26269;SDS011;15937;50.612;6.656;2023-11-19T12:18:16;20.43;;;2.77;;
26269;SDS011;15937;50.612;6.656;2023-11-19T12:22:21;29.38;;;3.47;;
26269;SDS011;15937;50.612;6.656;2023-11-19T12:26:34;22.13;;;2.85;;
26269;SDS011;15937;50.612;6.656;2023-11-19T12:30:37;23.08;;;4.45;;
26269;SDS011;15937;50.612;6.656;2023-11-19T12:34:41;23.90;;;4.03;;
26269;SDS011;15937;50.612;6.656;2023-11-19T12:38:43;18.02;;;2.72;;
26269;SDS011;15937;50.612;6.656;2023-11-19T12:42:51;19.48;;;3.65;;
26269;SDS011;15937;50.612;6.656;2023-11-19T12:47:04;29.08;;;4.72;;
26269;SDS011;15937;50.612;6.656;2023-11-19T12:51:08;15.63;;;3.58;;
26269;SDS011;15937;50.612;6.656;2023-11-19T12:55:24;34.90;;;4.82;;
26269;SDS011;15937;50.612;6.656;2023-11-19T12:59:31;26.55;;;3.63;;
26269;SDS011;15937;50.612;6.656;2023-11-19T13:03:33;21.70;;;4.85;;
26269;SDS011;15937;50.612;6.656;2023-11-19T13:07:36;26.80;;;3.45;;
26269;SDS011;15937;50.612;6.656;2023-11-19T13:11:38;29.65;;;7.03;;
26269;SDS011;15937;50.612;6.656;2023-11-19T13:15:42;31.55;;;6.32;;
26269;SDS011;15937;50.612;6.656;2023-11-19T13:19:47;23.40;;;6.38;;
26269;SDS011;15937;50.612;6.656;2023-11-19T13:23:49;25.25;;;4.70;;
26269;SDS011;15937;50.612;6.656;2023-11-19T13:27:54;26.88;;;5.70;;
26269;SDS011;15937;50.612;6.656;2023-11-19T13:31:57;25.25;;;4.07;;
26269;SDS011;15937;50.612;6.656;2023-11-19T13:35:59;21.15;;;3.72;;
26269;SDS011;15937;50.612;6.656;2023-11-19T13:40:07;31.05;;;5.35;;
26269;SDS011;15937;50.612;6.656;2023-11-19T13:44:11;17.95;;;3.53;;
26269;SDS011;15937;50.612;6.656;2023-11-19T13:48:14;16.75;;;3.78;;
26269;SDS011;15937;50.612;6.656;2023-11-19T13:52:15;24.45;;;4.38;;
26269;SDS011;15937;50.612;6.656;2023-11-19T13:56:18;20.63;;;5.25;;
26269;SDS011;15937;50.612;6.656;2023-11-19T14:00:20;26.90;;;4.97;;
26269;SDS011;15937;50.612;6.656;2023-11-19T14:04:24;10.98;;;2.85;;
26269;SDS011;15937;50.612;6.656;2023-11-19T14:08:26;23.45;;;5.28;;
26269;SDS011;15937;50.612;6.656;2023-11-19T14:12:28;18.13;;;4.53;;
26269;SDS011;15937;50.612;6.656;2023-11-19T14:16:30;18.70;;;4.90;;
26269;SDS011;15937;50.612;6.656;2023-11-19T14:20:34;22.08;;;5.13;;
26269;SDS011;15937;50.612;6.656;2023-11-19T14:24:37;25.55;;;5.25;;
26269;SDS011;15937;50.612;6.656;2023-11-19T14:28:41;16.13;;;2.45;;
26269;SDS011;15937;50.612;6.656;2023-11-19T14:32:46;22.42;;;4.60;;
26269;SDS011;15937;50.612;6.656;2023-11-19T14:36:50;14.70;;;2.47;;
26269;SDS011;15937;50.612;6.656;2023-11-19T14:40:52;28.47;;;4.10;;
26269;SDS011;15937;50.612;6.656;2023-11-19T14:44:54;11.18;;;3.63;;
26269;SDS011;15937;50.612;6.656;2023-11-19T14:48:59;34.10;;;6.15;;
26269;SDS011;15937;50.612;6.656;2023-11-19T14:53:02;20.30;;;2.50;;
26269;SDS011;15937;50.612;6.656;2023-11-19T14:57:07;13.45;;;2.95;;
26269;SDS011;15937;50.612;6.656;2023-11-19T15:01:13;21.42;;;3.03;;
26269;SDS011;15937;50.612;6.656;2023-11-19T15:05:16;28.33;;;4.43;;
26269;SDS011;15937;50.612;6.656;2023-11-19T15:09:18;32.63;;;8.63;;
26269;SDS011;15937;50.612;6.656;2023-11-19T15:13:22;34.90;;;5.88;;
26269;SDS011;15937;50.612;6.656;2023-11-19T15:17:24;26.23;;;4.63;;
26269;SDS011;15937;50.612;6.656;2023-11-19T15:21:29;24.10;;;5.18;;
26269;SDS011;15937;50.612;6.656;2023-11-19T15:25:31;12.52;;;2.85;;
26269;SDS011;15937;50.612;6.656;2023-11-19T15:29:33;15.38;;;2.67;;
26269;SDS011;15937;50.612;6.656;2023-11-19T15:37:41;29.42;;;3.03;;
26269;SDS011;15937;50.612;6.656;2023-11-19T15:41:45;29.27;;;3.17;;
26269;SDS011;15937;50.612;6.656;2023-11-19T15:45:47;13.10;;;2.53;;
26269;SDS011;15937;50.612;6.656;2023-11-19T15:49:50;18.77;;;3.20;;
26269;SDS011;15937;50.612;6.656;2023-11-19T15:53:52;24.33;;;3.47;;
26269;SDS011;15937;50.612;6.656;2023-11-19T15:57:54;16.40;;;2.88;;
26269;SDS011;15937;50.612;6.656;2023-11-19T16:01:56;23.30;;;2.83;;
26269;SDS011;15937;50.612;6.656;2023-11-19T16:05:58;23.42;;;3.47;;
26269;SDS011;15937;50.612;6.656;2023-11-19T16:10:10;22.77;;;2.90;;
26269;SDS011;15937;50.612;6.656;2023-11-19T16:14:14;21.45;;;2.95;;
26269;SDS011;15937;50.612;6.656;2023-11-19T16:18:16;13.35;;;3.17;;
26269;SDS011;15937;50.612;6.656;2023-11-19T16:22:18;22.63;;;3.40;;
26269;SDS011;15937;50.612;6.656;2023-11-19T16:26:23;15.27;;;3.22;;
26269;SDS011;15937;50.612;6.656;2023-11-19T16:30:27;19.55;;;3.60;;
26269;SDS011;15937;50.612;6.656;2023-11-19T16:34:28;16.83;;;3.13;;
26269;SDS011;15937;50.612;6.656;2023-11-19T16:38:31;21.27;;;3.65;;
26269;SDS011;15937;50.612;6.656;2023-11-19T16:42:34;30.58;;;2.83;;
26269;SDS011;15937;50.612;6.656;2023-11-19T16:46:37;28.67;;;3.67;;
26269;SDS011;15937;50.612;6.656;2023-11-19T16:50:39;23.73;;;2.97;;
26269;SDS011;15937;50.612;6.656;2023-11-19T16:58:44;20.73;;;3.85;;
26269;SDS011;15937;50.612;6.656;2023-11-19T17:02:54;20.70;;;3.03;;
26269;SDS011;15937;50.612;6.656;2023-11-19T17:06:56;23.60;;;3.27;;
26269;SDS011;15937;50.612;6.656;2023-11-19T17:11:01;16.02;;;3.03;;
26269;SDS011;15937;50.612;6.656;2023-11-19T17:15:05;19.35;;;3.40;;
26269;SDS011;15937;50.612;6.656;2023-11-19T17:19:07;23.48;;;3.85;;
26269;SDS011;15937;50.612;6.656;2023-11-19T17:23:12;20.92;;;2.85;;
26269;SDS011;15937;50.612;6.656;2023-11-19T17:27:15;20.55;;;3.05;;
26269;SDS011;15937;50.612;6.656;2023-11-19T17:31:17;23.65;;;3.00;;
26269;SDS011;15937;50.612;6.656;2023-11-19T17:35:19;20.40;;;3.20;;
26269;SDS011;15937;50.612;6.656;2023-11-19T17:39:22;30.10;;;5.22;;
26269;SDS011;15937;50.612;6.656;2023-11-19T17:43:24;21.92;;;3.00;;
26269;SDS011;15937;50.612;6.656;2023-11-19T17:47:26;28.55;;;4.80;;
26269;SDS011;15937;50.612;6.656;2023-11-19T17:51:28;24.55;;;3.33;;
26269;SDS011;15937;50.612;6.656;2023-11-19T17:55:30;22.25;;;4.07;;
26269;SDS011;15937;50.612;6.656;2023-11-19T17:59:32;22.60;;;3.10;;
26269;SDS011;15937;50.612;6.656;2023-11-19T18:03:34;12.32;;;3.20;;
26269;SDS011;15937;50.612;6.656;2023-11-19T18:07:37;11.48;;;3.08;;
26269;SDS011;15937;50.612;6.656;2023-11-19T18:11:40;33.42;;;3.42;;
26269;SDS011;15937;50.612;6.656;2023-11-19T18:15:43;15.98;;;3.03;;
26269;SDS011;15937;50.612;6.656;2023-11-19T18:19:44;23.13;;;3.33;;
26269;SDS011;15937;50.612;6.656;2023-11-19T18:23:46;15.52;;;3.15;;
26269;SDS011;15937;50.612;6.656;2023-11-19T18:27:48;34.00;;;3.13;;
26269;SDS011;15937;50.612;6.656;2023-11-19T18:31:51;14.23;;;2.85;;
26269;SDS011;15937;50.612;6.656;2023-11-19T18:35:53;14.93;;;2.90;;
26269;SDS011;15937;50.612;6.656;2023-11-19T18:39:55;17.00;;;2.00;;
26269;SDS011;15937;50.612;6.656;2023-11-19T18:43:56;20.52;;;3.38;;
26269;SDS011;15937;50.612;6.656;2023-11-19T18:47:59;19.13;;;2.47;;
26269;SDS011;15937;50.612;6.656;2023-11-19T18:52:01;17.87;;;2.67;;
26269;SDS011;15937;50.612;6.656;2023-11-19T18:56:03;8.93;;;2.25;;
26269;SDS011;15937;50.612;6.656;2023-11-19T19:00:08;14.50;;;2.35;;
26269;SDS011;15937;50.612;6.656;2023-11-19T19:04:12;18.98;;;2.85;;
26269;SDS011;15937;50.612;6.656;2023-11-19T19:08:16;14.88;;;2.10;;
26269;SDS011;15937;50.612;6.656;2023-11-19T19:12:18;10.75;;;2.00;;
26269;SDS011;15937;50.612;6.656;2023-11-19T19:16:21;12.30;;;2.50;;
26269;SDS011;15937;50.612;6.656;2023-11-19T19:20:23;13.13;;;2.40;;
26269;SDS011;15937;50.612;6.656;2023-11-19T19:24:25;15.45;;;2.85;;
26269;SDS011;15937;50.612;6.656;2023-11-19T19:28:28;14.93;;;2.78;;
26269;SDS011;15937;50.612;6.656;2023-11-19T19:32:32;21.50;;;2.78;;
26269;SDS011;15937;50.612;6.656;2023-11-19T19:36:34;20.60;;;2.15;;
26269;SDS011;15937;50.612;6.656;2023-11-19T19:40:36;24.88;;;2.38;;
26269;SDS011;15937;50.612;6.656;2023-11-19T19:44:38;17.83;;;1.90;;
26269;SDS011;15937;50.612;6.656;2023-11-19T19:48:40;10.93;;;2.35;;
26269;SDS011;15937;50.612;6.656;2023-11-19T19:52:42;15.47;;;2.50;;
26269;SDS011;15937;50.612;6.656;2023-11-19T19:56:44;13.90;;;2.23;;
26269;SDS011;15937;50.612;6.656;2023-11-19T20:00:46;21.58;;;2.20;;
26269;SDS011;15937;50.612;6.656;2023-11-19T20:04:48;13.15;;;1.98;;
26269;SDS011;15937;50.612;6.656;2023-11-19T20:08:54;10.35;;;1.80;;
26269;SDS011;15937;50.612;6.656;2023-11-19T20:12:56;9.13;;;2.28;;
26269;SDS011;15937;50.612;6.656;2023-11-19T20:16:58;18.50;;;2.33;;
26269;SDS011;15937;50.612;6.656;2023-11-19T20:21:03;11.68;;;1.73;;
26269;SDS011;15937;50.612;6.656;2023-11-19T20:25:09;18.15;;;1.90;;
26269;SDS011;15937;50.612;6.656;2023-11-19T20:29:12;12.90;;;1.80;;
26269;SDS011;15937;50.612;6.656;2023-11-19T20:33:14;10.10;;;2.00;;
26269;SDS011;15937;50.612;6.656;2023-11-19T20:37:17;6.63;;;2.20;;
26269;SDS011;15937;50.612;6.656;2023-11-19T20:41:19;7.83;;;1.63;;
26269;SDS011;15937;50.612;6.656;2023-11-19T20:45:20;10.13;;;1.70;;
26269;SDS011;15937;50.612;6.656;2023-11-19T20:49:24;9.85;;;1.83;;
26269;SDS011;15937;50.612;6.656;2023-11-19T20:53:33;10.55;;;1.95;;
26269;SDS011;15937;50.612;6.656;2023-11-19T20:57:40;12.13;;;1.85;;
26269;SDS011;15937;50.612;6.656;2023-11-19T21:01:42;11.18;;;1.40;;
26269;SDS011;15937;50.612;6.656;2023-11-19T21:05:44;5.77;;;1.80;;
26269;SDS011;15937;50.612;6.656;2023-11-19T21:09:55;8.45;;;1.73;;
26269;SDS011;15937;50.612;6.656;2023-11-19T21:13:57;5.05;;;1.55;;
26269;SDS011;15937;50.612;6.656;2023-11-19T21:17:59;7.47;;;1.73;;
26269;SDS011;15937;50.612;6.656;2023-11-19T21:22:02;8.43;;;1.35;;
26269;SDS011;15937;50.612;6.656;2023-11-19T21:26:05;11.63;;;3.35;;
26269;SDS011;15937;50.612;6.656;2023-11-19T21:30:07;13.57;;;3.78;;
26269;SDS011;15937;50.612;6.656;2023-11-19T21:34:11;7.85;;;1.98;;
26269;SDS011;15937;50.612;6.656;2023-11-19T21:38:14;2.40;;;1.30;;
26269;SDS011;15937;50.612;6.656;2023-11-19T21:42:15;3.45;;;1.00;;
26269;SDS011;15937;50.612;6.656;2023-11-19T21:46:17;4.93;;;1.55;;
26269;SDS011;15937;50.612;6.656;2023-11-19T21:50:22;7.00;;;1.42;;
26269;SDS011;15937;50.612;6.656;2023-11-19T21:54:24;4.90;;;1.08;;
26269;SDS011;15937;50.612;6.656;2023-11-19T21:58:26;4.03;;;1.40;;
26269;SDS011;15937;50.612;6.656;2023-11-19T22:02:28;5.93;;;2.77;;
26269;SDS011;15937;50.612;6.656;2023-11-19T22:06:30;9.63;;;1.30;;
26269;SDS011;15937;50.612;6.656;2023-11-19T22:10:33;4.53;;;1.30;;
26269;SDS011;15937;50.612;6.656;2023-11-19T22:14:34;4.43;;;1.10;;
26269;SDS011;15937;50.612;6.656;2023-11-19T22:18:37;6.20;;;1.40;;
26269;SDS011;15937;50.612;6.656;2023-11-19T22:22:39;2.50;;;1.10;;
26269;SDS011;15937;50.612;6.656;2023-11-19T22:26:42;8.73;;;1.30;;
26269;SDS011;15937;50.612;6.656;2023-11-19T22:30:44;8.52;;;1.23;;
26269;SDS011;15937;50.612;6.656;2023-11-19T22:34:47;1.98;;;0.90;;
26269;SDS011;15937;50.612;6.656;2023-11-19T22:38:49;1.08;;;0.90;;
26269;SDS011;15937;50.612;6.656;2023-11-19T22:42:53;12.85;;;1.20;;
26269;SDS011;15937;50.612;6.656;2023-11-19T22:46:55;6.85;;;1.10;;
26269;SDS011;15937;50.612;6.656;2023-11-19T22:50:56;2.05;;;1.00;;
26269;SDS011;15937;50.612;6.656;2023-11-19T22:54:59;3.60;;;1.00;;
26269;SDS011;15937;50.612;6.656;2023-11-19T22:59:01;2.40;;;1.00;;
26269;SDS011;15937;50.612;6.656;2023-11-19T23:03:05;6.00;;;1.40;;
26269;SDS011;15937;50.612;6.656;2023-11-19T23:07:08;6.93;;;1.30;;
26269;SDS011;15937;50.612;6.656;2023-11-19T23:11:10;4.57;;;1.38;;
26269;SDS011;15937;50.612;6.656;2023-11-19T23:15:13;2.50;;;1.10;;
26269;SDS011;15937;50.612;6.656;2023-11-19T23:19:16;10.45;;;1.20;;
26269;SDS011;15937;50.612;6.656;2023-11-19T23:23:17;4.97;;;1.77;;
26269;SDS011;15937;50.612;6.656;2023-11-19T23:27:20;6.25;;;1.35;;
26269;SDS011;15937;50.612;6.656;2023-11-19T23:31:22;8.75;;;1.23;;
26269;SDS011;15937;50.612;6.656;2023-11-19T23:35:24;7.53;;;1.33;;
26269;SDS011;15937;50.612;6.656;2023-11-19T23:43:29;13.27;;;1.42;;
26269;SDS011;15937;50.612;6.656;2023-11-19T23:47:31;7.33;;;1.23;;
26269;SDS011;15937;50.612;6.656;2023-11-19T23:51:37;8.05;;;1.60;;
26269;SDS011;15937;50.612;6.656;2023-11-19T23:55:40;7.05;;;1.45;;
26269;SDS011;15937;50.612;6.656;2023-11-19T23:59:45;6.15;;;1.10;;
